Time;durP1;ratioP1;P1;durP2;ratioP2;P2;SDS_P1;SDS_P2;PMS_P1;PMS_P2;Temp;Humidity;BMP_temperature;BMP_pressure;BME280_temperature;BME280_humidity;BME280_pressure;Samples;Min_cycle;Max_cycle;Signal;HPM_P1;HPM_P2
2022/08/08 00:00:23;;;;;;;2.50;1.87;;;15.50;92.50;;;;;;5030281;28;20436;-67
2022/08/08 00:02:59;;;;;;;3.30;2.40;;;15.40;93.30;;;;;;5030302;28;20440;-67
2022/08/08 00:05:35;;;;;;;5.90;2.33;;;15.30;94.10;;;;;;5029821;28;20964;-67
2022/08/08 00:08:08;;;;;;;5.53;2.30;;;15.40;93.40;;;;;;5030112;28;20579;-67
2022/08/08 00:10:55;;;;;;;2.60;2.20;;;15.40;93.50;;;;;;5030126;28;20510;-67
2022/08/08 00:13:28;;;;;;;2.80;1.97;;;15.40;94.30;;;;;;5030098;28;21126;-68
2022/08/08 00:16:01;;;;;;;2.50;2.17;;;15.30;95.10;;;;;;5029637;28;20476;-67
2022/08/08 00:18:39;;;;;;;3.90;1.93;;;15.30;96.00;;;;;;5030095;28;20444;-67
2022/08/08 00:21:11;;;;;;;2.70;1.90;;;15.30;95.80;;;;;;5030275;28;20449;-67
2022/08/08 00:23:43;;;;;;;2.90;2.07;;;15.10;96.20;;;;;;5030286;28;20449;-67
2022/08/08 00:26:18;;;;;;;3.50;1.70;;;15.10;97.20;;;;;;5029553;28;20499;-66
2022/08/08 00:28:49;;;;;;;3.03;2.03;;;15.00;99.20;;;;;;5030100;28;20452;-67
2022/08/08 00:31:20;;;;;;;2.53;1.67;;;15.00;99.90;;;;;;5030176;28;20452;-67
2022/08/08 00:35:09;;;;;;;2.30;1.80;;;15.00;99.90;;;;;;5030090;28;20539;-66
2022/08/08 00:36:54;;;;;;;2.70;2.10;;;14.90;99.90;;;;;;5029198;28;20489;-67
2022/08/08 00:39:31;;;;;;;2.93;1.80;;;14.90;99.90;;;;;;5029905;28;20444;-67
2022/08/08 00:42:41;;;;;;;2.70;2.20;;;14.80;99.90;;;;;;5029691;28;20470;-67
2022/08/08 00:45:54;;;;;;;5.80;2.60;;;14.80;99.90;;;;;;5029360;28;20453;-67
2022/08/08 00:49:03;;;;;;;2.13;1.77;;;14.80;99.90;;;;;;5029803;28;20441;-67
2022/08/08 00:52:02;;;;;;;3.70;2.33;;;14.80;99.90;;;;;;5029736;28;20448;-67
2022/08/08 00:55:02;;;;;;;3.60;2.20;;;14.80;99.90;;;;;;5029355;28;20437;-68
2022/08/08 00:58:07;;;;;;;3.20;2.00;;;14.70;99.90;;;;;;5029527;28;20807;-67
2022/08/08 01:00:41;;;;;;;2.80;2.07;;;14.80;99.90;;;;;;5029503;28;20459;-67
2022/08/08 01:03:56;;;;;;;3.80;2.40;;;14.70;99.90;;;;;;5029568;28;20452;-67
2022/08/08 01:07:05;;;;;;;3.73;2.50;;;14.80;99.90;;;;;;5031203;28;20489;-67
2022/08/08 01:10:15;;;;;;;5.30;2.43;;;14.70;99.90;;;;;;5033611;28;20451;-66
2022/08/08 01:13:04;;;;;;;4.30;2.40;;;14.70;99.90;;;;;;5033565;28;20445;-67
2022/08/08 01:16:00;;;;;;;4.47;1.97;;;14.70;99.90;;;;;;5033207;28;20451;-67
2022/08/08 01:18:57;;;;;;;3.07;2.00;;;14.60;99.90;;;;;;5016216;28;20471;-67
2022/08/08 01:21:38;;;;;;;3.33;2.00;;;14.50;99.90;;;;;;5033767;28;20433;-67
2022/08/08 01:24:40;;;;;;;2.60;2.00;;;14.50;99.90;;;;;;5033298;28;20456;-67
2022/08/08 01:27:42;;;;;;;3.23;2.90;;;14.50;99.90;;;;;;5033181;28;20488;-67
2022/08/08 01:30:44;;;;;;;3.07;2.30;;;14.40;99.90;;;;;;5033383;28;20551;-67
2022/08/08 01:33:50;;;;;;;3.53;2.30;;;14.30;99.90;;;;;;5033221;28;20444;-68
2022/08/08 01:36:47;;;;;;;3.10;2.60;;;14.40;99.90;;;;;;5032787;28;21013;-68
2022/08/08 01:39:23;;;;;;;4.30;2.17;;;14.40;99.90;;;;;;4989495;28;20445;-67
2022/08/08 01:41:59;;;;;;;2.57;2.07;;;14.50;99.90;;;;;;5033019;28;20452;-67
2022/08/08 01:44:42;;;;;;;4.07;2.13;;;14.40;99.90;;;;;;5033059;28;20444;-67
2022/08/08 01:47:19;;;;;;;4.27;2.30;;;14.30;99.90;;;;;;5032936;28;21061;-67
2022/08/08 01:49:52;;;;;;;5.30;2.43;;;14.40;99.90;;;;;;5033003;28;20447;-67
2022/08/08 01:52:33;;;;;;;2.47;1.97;;;14.30;99.90;;;;;;5032840;28;20455;-67
2022/08/08 01:55:09;;;;;;;2.90;2.30;;;14.20;99.90;;;;;;5032537;28;20444;-67
2022/08/08 01:57:46;;;;;;;2.50;1.90;;;14.30;99.90;;;;;;5032685;28;20482;-67
2022/08/08 02:00:19;;;;;;;3.00;2.50;;;14.30;99.90;;;;;;5032765;28;20451;-67
2022/08/08 02:03:10;;;;;;;2.60;2.20;;;14.20;99.90;;;;;;5032987;28;20427;-68
2022/08/08 02:05:51;;;;;;;4.40;2.20;;;14.20;99.90;;;;;;5032462;28;20464;-67
2022/08/08 02:08:24;;;;;;;2.73;2.10;;;14.20;99.90;;;;;;5032730;28;20485;-68
2022/08/08 02:11:05;;;;;;;3.10;2.37;;;14.20;99.90;;;;;;5032683;28;20445;-67
2022/08/08 02:13:37;;;;;;;3.17;2.10;;;14.10;99.90;;;;;;5032854;28;20449;-67
2022/08/08 02:16:15;;;;;;;3.10;2.40;;;14.10;99.90;;;;;;5032318;28;20473;-67
2022/08/08 02:18:51;;;;;;;3.67;2.30;;;14.10;99.90;;;;;;5031777;28;20441;-67
2022/08/08 02:24:19;;;;;;;3.50;1.93;;;14.00;99.90;;;;;;5032440;28;20934;-67
2022/08/08 02:26:51;;;;;;;3.30;2.60;;;13.90;99.90;;;;;;5032062;28;21189;-67
2022/08/08 02:29:40;;;;;;;3.40;2.50;;;14.00;99.90;;;;;;5032792;28;20440;-67
2022/08/08 02:32:18;;;;;;;4.73;2.47;;;14.00;99.90;;;;;;5029953;28;20459;-67
2022/08/08 02:35:19;;;;;;;4.27;2.50;;;14.10;99.90;;;;;;5032403;28;20472;-67
2022/08/08 02:38:20;;;;;;;2.30;2.10;;;14.00;99.90;;;;;;5018290;28;20449;-67
2022/08/08 02:41:05;;;;;;;3.20;2.47;;;13.90;99.90;;;;;;5032589;28;20453;-67
2022/08/08 02:43:54;;;;;;;2.23;1.93;;;13.90;99.90;;;;;;5033001;28;20440;-67
2022/08/08 02:46:34;;;;;;;8.57;3.60;;;13.90;99.90;;;;;;5032682;28;20461;-67
2022/08/08 02:49:32;;;;;;;2.67;2.40;;;13.80;99.90;;;;;;5033084;28;20451;-67
2022/08/08 02:52:15;;;;;;;4.20;2.90;;;13.80;99.90;;;;;;5032969;28;20447;-67
2022/08/08 02:55:01;;;;;;;5.13;2.37;;;13.80;99.90;;;;;;5032592;28;20452;-67
2022/08/08 02:58:09;;;;;;;2.30;2.00;;;13.80;99.90;;;;;;5033264;28;20484;-67
2022/08/08 03:01:11;;;;;;;4.03;2.77;;;13.70;99.90;;;;;;5033669;28;20437;-67
2022/08/08 03:04:16;;;;;;;6.30;2.37;;;13.70;99.90;;;;;;5030639;28;20452;-68
2022/08/08 03:07:09;;;;;;;3.00;2.70;;;13.60;99.90;;;;;;5033072;28;20571;-68
2022/08/08 03:10:24;;;;;;;3.57;3.00;;;13.50;99.90;;;;;;5033078;28;20475;-67
2022/08/08 03:13:35;;;;;;;3.50;2.83;;;13.30;99.90;;;;;;5016422;28;20445;-66
2022/08/08 03:16:30;;;;;;;5.83;2.50;;;13.20;99.90;;;;;;5034243;28;21037;-67
2022/08/08 03:19:22;;;;;;;3.27;2.60;;;13.10;99.90;;;;;;5037266;28;20433;-68
2022/08/08 03:21:48;;;;;;;5.40;2.80;;;13.10;99.90;;;;;;5034436;28;20433;-68
2022/08/08 03:24:18;;;;;;;2.73;2.27;;;13.10;99.90;;;;;;5039643;28;20436;-68
2022/08/08 03:26:51;;;;;;;2.90;2.30;;;13.10;99.90;;;;;;5031386;28;20558;-68
2022/08/08 03:29:23;;;;;;;4.03;2.83;;;13.10;99.90;;;;;;5030183;28;20453;-65
2022/08/08 03:34:34;;;;;;;3.27;2.77;;;13.10;99.90;;;;;;5030949;28;20420;-67
2022/08/08 03:37:01;;;;;;;3.77;3.00;;;13.10;99.90;;;;;;5031276;28;20476;-67
2022/08/08 03:39:30;;;;;;;2.50;2.10;;;13.10;99.90;;;;;;5031382;28;20475;-67
2022/08/08 03:41:57;;;;;;;3.10;2.47;;;13.10;99.90;;;;;;5031258;28;20538;-67
2022/08/08 03:44:28;;;;;;;6.37;3.63;;;13.20;99.90;;;;;;5030989;28;20492;-68
2022/08/08 03:46:55;;;;;;;3.40;2.57;;;13.10;99.90;;;;;;5030602;28;20469;-68
2022/08/08 03:49:25;;;;;;;2.73;2.43;;;13.10;99.90;;;;;;5030903;28;20456;-69
2022/08/08 03:51:52;;;;;;;2.90;2.50;;;13.00;99.90;;;;;;5030788;28;20453;-68
2022/08/08 03:54:19;;;;;;;3.03;2.53;;;13.00;99.90;;;;;;5031051;28;20452;-68
2022/08/08 03:56:48;;;;;;;3.27;2.77;;;13.00;99.90;;;;;;5030210;28;20468;-68
2022/08/08 03:59:15;;;;;;;3.23;2.60;;;13.00;99.90;;;;;;5030411;28;20453;-69
2022/08/08 04:01:42;;;;;;;5.00;3.00;;;13.10;99.90;;;;;;5030259;28;20449;-68
2022/08/08 04:04:10;;;;;;;5.20;2.83;;;13.10;99.90;;;;;;5030534;28;20449;-69
2022/08/08 04:06:39;;;;;;;3.40;2.90;;;13.10;99.90;;;;;;5030152;28;20472;-68
2022/08/08 04:09:08;;;;;;;3.63;2.67;;;13.10;99.90;;;;;;5030427;28;20485;-68
2022/08/08 04:11:39;;;;;;;3.23;2.67;;;13.10;99.90;;;;;;5030383;28;20463;-68
2022/08/08 04:14:07;;;;;;;4.13;2.40;;;13.10;99.90;;;;;;5030175;28;20455;-68
2022/08/08 04:16:34;;;;;;;4.57;2.60;;;13.10;99.90;;;;;;5030138;28;20476;-68
2022/08/08 04:19:01;;;;;;;4.50;3.00;;;13.10;99.90;;;;;;5030191;28;20532;-67
2022/08/08 04:21:28;;;;;;;5.70;3.07;;;13.00;99.90;;;;;;5030134;28;20475;-68
2022/08/08 04:23:55;;;;;;;3.90;3.30;;;13.00;99.90;;;;;;5030107;28;20659;-68
2022/08/08 04:26:21;;;;;;;4.17;3.30;;;13.10;99.90;;;;;;5029530;28;20476;-69
2022/08/08 04:28:50;;;;;;;4.83;2.67;;;13.10;99.90;;;;;;5029897;28;20899;-68
2022/08/08 04:31:18;;;;;;;6.40;3.10;;;13.00;99.90;;;;;;5030056;28;20456;-69
2022/08/08 04:33:45;;;;;;;7.70;3.73;;;13.00;99.90;;;;;;5029827;28;20552;-68
2022/08/08 04:36:12;;;;;;;4.03;2.70;;;13.00;99.90;;;;;;5029532;28;20465;-69
2022/08/08 04:38:38;;;;;;;5.37;3.10;;;12.90;99.90;;;;;;5029907;28;20451;-68
2022/08/08 04:41:05;;;;;;;5.00;2.90;;;12.90;99.90;;;;;;5029392;28;20464;-69
2022/08/08 04:43:33;;;;;;;3.77;2.53;;;13.00;99.90;;;;;;5030282;28;20460;-68
2022/08/08 04:45:59;;;;;;;4.63;2.90;;;13.00;99.90;;;;;;5029744;28;20472;-68
2022/08/08 04:48:28;;;;;;;3.47;3.07;;;13.10;99.90;;;;;;5030186;28;20484;-68
2022/08/08 04:50:54;;;;;;;3.80;2.60;;;13.20;99.90;;;;;;5030085;28;20456;-68
2022/08/08 04:53:21;;;;;;;4.00;3.07;;;13.20;99.90;;;;;;5030220;28;20491;-68
2022/08/08 04:55:48;;;;;;;3.80;2.83;;;13.20;99.90;;;;;;5029518;28;20469;-68
2022/08/08 04:58:16;;;;;;;3.57;2.63;;;13.30;99.90;;;;;;5029999;28;20480;-68
2022/08/08 05:00:42;;;;;;;5.77;3.07;;;13.30;99.90;;;;;;5029997;28;20882;-67
2022/08/08 05:03:09;;;;;;;4.47;3.20;;;13.40;99.90;;;;;;5029834;28;20456;-68
2022/08/08 05:05:37;;;;;;;3.37;3.07;;;13.60;99.90;;;;;;5029364;28;20835;-69
2022/08/08 05:08:04;;;;;;;2.90;2.40;;;13.60;99.90;;;;;;5029612;28;20476;-69
2022/08/08 05:10:31;;;;;;;3.30;2.97;;;13.60;99.90;;;;;;5029564;28;20976;-69
2022/08/08 05:12:58;;;;;;;3.93;2.87;;;13.70;99.90;;;;;;5029615;28;20950;-68
2022/08/08 05:15:25;;;;;;;5.70;2.70;;;13.60;99.90;;;;;;5029378;28;20449;-68
2022/08/08 05:17:52;;;;;;;6.40;3.83;;;13.70;99.90;;;;;;5029704;28;20447;-69
2022/08/08 05:20:19;;;;;;;6.70;3.30;;;13.70;99.90;;;;;;5029388;28;20941;-67
2022/08/08 05:22:49;;;;;;;3.90;3.20;;;13.80;99.90;;;;;;5029372;28;20449;-68
2022/08/08 05:25:16;;;;;;;3.80;2.77;;;13.90;99.90;;;;;;5029602;28;20440;-67
2022/08/08 05:27:43;;;;;;;5.83;3.20;;;13.90;99.90;;;;;;5029332;28;20562;-67
2022/08/08 05:30:11;;;;;;;4.23;3.10;;;14.00;99.90;;;;;;5029531;28;20846;-68
2022/08/08 05:32:38;;;;;;;3.83;3.10;;;14.10;99.90;;;;;;5029678;28;20445;-68
2022/08/08 05:35:06;;;;;;;3.90;2.77;;;14.20;99.90;;;;;;5028973;28;20508;-68
2022/08/08 05:37:38;;;;;;;5.13;2.83;;;14.30;99.90;;;;;;5029242;28;20971;-68
2022/08/08 05:40:08;;;;;;;5.63;3.00;;;14.40;99.90;;;;;;5029366;28;20457;-68
2022/08/08 05:42:40;;;;;;;4.60;2.90;;;14.40;99.90;;;;;;5029319;28;20484;-68
2022/08/08 05:45:09;;;;;;;4.23;3.33;;;14.50;99.90;;;;;;5029052;28;20441;-67
2022/08/08 05:47:37;;;;;;;6.80;3.20;;;14.60;99.90;;;;;;5029103;28;20556;-68
2022/08/08 05:50:05;;;;;;;4.80;3.40;;;14.70;99.90;;;;;;5029016;28;20484;-68
2022/08/08 05:52:34;;;;;;;5.33;3.03;;;14.80;99.90;;;;;;5029685;28;20452;-68
2022/08/08 05:55:01;;;;;;;5.27;4.37;;;14.90;99.90;;;;;;5032688;28;20494;-68
2022/08/08 05:57:32;;;;;;;3.67;3.20;;;15.00;99.90;;;;;;5032863;28;20490;-68
2022/08/08 06:00:02;;;;;;;4.57;3.17;;;15.10;99.90;;;;;;5032829;28;20453;-69
2022/08/08 06:05:18;;;;;;;7.67;3.30;;;15.40;99.90;;;;;;5032237;28;20555;-69
2022/08/08 06:07:47;;;;;;;4.90;3.67;;;15.50;99.90;;;;;;5032341;28;20456;-68
2022/08/08 06:10:15;;;;;;;6.07;3.40;;;15.60;99.90;;;;;;5032522;28;20449;-68
2022/08/08 06:12:43;;;;;;;4.77;3.43;;;15.60;99.90;;;;;;5032372;28;20475;-69
2022/08/08 06:15:11;;;;;;;4.50;3.53;;;15.80;99.90;;;;;;5032361;28;20475;-68
2022/08/08 06:17:40;;;;;;;6.90;3.93;;;15.90;99.90;;;;;;5032387;28;20468;-68
2022/08/08 06:20:10;;;;;;;6.50;4.03;;;16.10;99.90;;;;;;5032260;28;21110;-68
2022/08/08 06:22:37;;;;;;;4.80;3.80;;;16.20;99.90;;;;;;5032318;28;20531;-68
2022/08/08 06:25:04;;;;;;;4.67;4.20;;;16.30;99.90;;;;;;5031908;28;20956;-68
2022/08/08 06:27:39;;;;;;;4.27;3.83;;;16.50;99.90;;;;;;5032000;28;20534;-69
2022/08/08 06:30:11;;;;;;;4.53;3.40;;;16.60;99.90;;;;;;5032476;28;20798;-68
2022/08/08 06:32:42;;;;;;;5.37;4.00;;;16.70;99.90;;;;;;5032145;28;20463;-69
2022/08/08 06:35:12;;;;;;;4.90;4.20;;;16.90;99.90;;;;;;5031858;28;20448;-67
2022/08/08 06:37:44;;;;;;;5.97;3.93;;;17.00;99.90;;;;;;5031834;28;20468;-67
2022/08/08 06:40:13;;;;;;;8.67;4.53;;;17.10;99.90;;;;;;5031962;28;20455;-67
2022/08/08 06:42:46;;;;;;;5.50;4.00;;;17.20;99.90;;;;;;5032132;28;20827;-67
2022/08/08 06:45:15;;;;;;;7.40;4.37;;;17.30;99.90;;;;;;5031635;28;20539;-67
2022/08/08 06:47:42;;;;;;;4.57;4.07;;;17.40;99.90;;;;;;5031897;28;20461;-68
2022/08/08 06:50:10;;;;;;;6.30;3.70;;;17.60;99.90;;;;;;5031683;28;21017;-68
2022/08/08 06:52:38;;;;;;;4.40;3.87;;;17.70;99.90;;;;;;5032531;28;20449;-67
2022/08/08 06:55:06;;;;;;;5.53;4.40;;;17.80;99.90;;;;;;5032305;28;20478;-68
2022/08/08 06:57:33;;;;;;;4.73;3.70;;;17.90;99.90;;;;;;5032447;28;20507;-68
2022/08/08 07:00:00;;;;;;;4.10;3.67;;;18.00;99.90;;;;;;5032583;28;20445;-67
2022/08/08 07:02:32;;;;;;;4.87;3.80;;;18.10;99.90;;;;;;5031816;28;20456;-68
2022/08/08 07:05:04;;;;;;;8.13;4.13;;;18.30;99.90;;;;;;5031336;28;20495;-67
2022/08/08 07:07:38;;;;;;;4.60;4.10;;;18.40;99.90;;;;;;5031834;28;20473;-68
2022/08/08 07:10:06;;;;;;;3.90;3.27;;;18.50;99.90;;;;;;5031875;28;20487;-68
2022/08/08 07:12:39;;;;;;;5.27;3.60;;;18.70;99.90;;;;;;5031708;28;20451;-67
2022/08/08 07:15:09;;;;;;;4.17;3.47;;;18.80;99.90;;;;;;5031053;28;20961;-67
2022/08/08 07:17:46;;;;;;;5.50;4.43;;;18.90;99.90;;;;;;5031253;28;21000;-67
2022/08/08 07:20:18;;;;;;;5.30;3.77;;;19.10;99.90;;;;;;5031372;28;20931;-68
2022/08/08 07:22:56;;;;;;;5.57;3.27;;;19.30;99.90;;;;;;5031170;28;21012;-68
2022/08/08 07:25:25;;;;;;;4.27;3.20;;;19.40;99.90;;;;;;5030862;28;20444;-68
2022/08/08 07:28:00;;;;;;;8.53;3.53;;;19.50;99.90;;;;;;5030957;28;20488;-68
2022/08/08 07:30:27;;;;;;;4.77;3.30;;;19.70;99.90;;;;;;5031200;28;20433;-68
2022/08/08 07:32:57;;;;;;;3.70;3.00;;;19.80;99.90;;;;;;5030823;28;20494;-66
2022/08/08 07:35:25;;;;;;;8.50;3.33;;;20.00;99.90;;;;;;5030699;28;20457;-67
2022/08/08 07:37:54;;;;;;;4.60;3.50;;;20.10;99.90;;;;;;5030912;28;20527;-67
2022/08/08 07:40:21;;;;;;;4.43;4.03;;;20.30;99.90;;;;;;5030963;28;20453;-67
2022/08/08 07:42:51;;;;;;;4.20;3.13;;;20.40;99.90;;;;;;5031366;28;20467;-68
2022/08/08 07:45:18;;;;;;;5.90;3.60;;;20.40;99.90;;;;;;5030901;28;20445;-67
2022/08/08 07:47:45;;;;;;;3.60;3.30;;;20.50;99.90;;;;;;5031116;28;20452;-67
2022/08/08 07:50:14;;;;;;;5.17;3.10;;;20.70;99.90;;;;;;5030605;28;20476;-67
2022/08/08 07:52:46;;;;;;;5.47;3.13;;;20.70;99.90;;;;;;5030494;28;20452;-68
2022/08/08 07:55:18;;;;;;;4.70;3.30;;;20.80;99.90;;;;;;5030489;28;20451;-68
2022/08/08 07:57:51;;;;;;;4.77;3.17;;;20.90;99.90;;;;;;5030588;28;20453;-67
2022/08/08 08:00:18;;;;;;;3.30;3.00;;;21.00;99.90;;;;;;5030432;28;20452;-68
2022/08/08 08:02:51;;;;;;;5.30;3.10;;;21.20;99.90;;;;;;5029293;28;21117;-68
2022/08/08 08:05:23;;;;;;;5.90;3.20;;;21.40;99.90;;;;;;5029832;28;20206;-68
2022/08/08 08:07:54;;;;;;;5.43;2.93;;;21.70;99.90;;;;;;5030312;28;20449;-67
2022/08/08 08:10:23;;;;;;;4.23;3.17;;;21.80;99.90;;;;;;5030229;28;21009;-67
2022/08/08 08:12:53;;;;;;;4.93;3.90;;;22.00;99.40;;;;;;5030458;28;20453;-67
2022/08/08 08:15:24;;;;;;;4.90;3.40;;;22.00;99.40;;;;;;5029603;28;20443;-68
2022/08/08 08:17:57;;;;;;;5.03;3.27;;;22.20;99.20;;;;;;5030284;28;20448;-66
2022/08/08 08:20:28;;;;;;;6.10;3.63;;;22.30;98.50;;;;;;5030247;28;20441;-67
2022/08/08 08:22:55;;;;;;;3.70;3.20;;;22.50;98.30;;;;;;5030293;28;20535;-67
2022/08/08 08:25:22;;;;;;;4.07;3.37;;;22.60;98.00;;;;;;5029650;28;20453;-68
2022/08/08 08:27:48;;;;;;;3.50;3.17;;;22.80;98.50;;;;;;5030020;28;20848;-68
2022/08/08 08:30:15;;;;;;;5.07;3.53;;;22.90;97.30;;;;;;5029739;28;20970;-67
2022/08/08 08:32:42;;;;;;;3.53;3.20;;;22.90;96.70;;;;;;5029945;28;20459;-68
2022/08/08 08:35:10;;;;;;;4.73;3.40;;;23.10;97.20;;;;;;5029778;28;20444;-67
2022/08/08 08:37:38;;;;;;;3.80;3.43;;;23.20;96.10;;;;;;5029940;28;20472;-67
2022/08/08 08:40:06;;;;;;;3.87;3.10;;;23.30;95.70;;;;;;5029995;28;20454;-67
2022/08/08 08:42:33;;;;;;;4.80;3.50;;;23.50;95.40;;;;;;5029873;28;20832;-67
2022/08/08 08:45:02;;;;;;;4.63;2.70;;;23.60;95.10;;;;;;5029374;28;20954;-68
2022/08/08 08:47:30;;;;;;;5.30;3.60;;;23.70;95.90;;;;;;5029754;28;21005;-68
2022/08/08 08:49:57;;;;;;;4.20;3.00;;;23.80;95.60;;;;;;5030073;28;20481;-68
2022/08/08 08:52:24;;;;;;;3.00;2.70;;;24.00;95.00;;;;;;5030193;28;20452;-68
2022/08/08 08:54:56;;;;;;;3.90;3.07;;;24.30;94.80;;;;;;5029507;28;20861;-68
2022/08/08 08:57:23;;;;;;;3.60;2.90;;;24.50;94.00;;;;;;5029649;28;20845;-68
2022/08/08 08:59:55;;;;;;;3.50;3.07;;;24.70;93.30;;;;;;5029932;28;20445;-67
2022/08/08 09:02:25;;;;;;;5.17;3.30;;;24.90;93.90;;;;;;5029665;28;20943;-68
2022/08/08 09:04:56;;;;;;;3.80;3.50;;;24.90;92.30;;;;;;5029421;28;20449;-68
2022/08/08 09:07:24;;;;;;;3.43;3.13;;;25.10;92.30;;;;;;5029729;28;20476;-68
2022/08/08 09:09:57;;;;;;;5.40;2.80;;;25.20;91.80;;;;;;5029563;28;20576;-68
2022/08/08 09:12:26;;;;;;;3.33;3.03;;;25.30;90.90;;;;;;5029771;28;20444;-68
2022/08/08 09:14:55;;;;;;;3.20;2.60;;;25.30;90.50;;;;;;5029210;28;20969;-67
2022/08/08 09:17:23;;;;;;;4.20;3.37;;;25.40;90.30;;;;;;5029823;28;20476;-68
2022/08/08 09:19:52;;;;;;;4.73;3.03;;;25.50;90.90;;;;;;5029855;28;20453;-68
2022/08/08 09:22:21;;;;;;;3.70;2.50;;;25.70;90.20;;;;;;5029691;28;20484;-68
2022/08/08 09:24:49;;;;;;;3.00;2.60;;;25.70;89.60;;;;;;5029420;28;20846;-67
2022/08/08 09:27:19;;;;;;;4.33;3.20;;;25.90;89.10;;;;;;5029610;28;20477;-67
2022/08/08 09:29:51;;;;;;;3.00;2.70;;;26.10;87.40;;;;;;5033257;28;20484;-68
2022/08/08 09:32:33;;;;;;;3.50;2.77;;;26.20;85.00;;;;;;5033351;28;20459;-68
2022/08/08 09:35:01;;;;;;;3.60;2.73;;;26.30;83.90;;;;;;5033137;28;20425;-68
2022/08/08 09:37:30;;;;;;;3.60;3.00;;;26.20;81.80;;;;;;5033072;28;20475;-68
2022/08/08 09:40:02;;;;;;;3.10;2.63;;;26.10;82.40;;;;;;5033276;28;20453;-68
2022/08/08 09:42:34;;;;;;;4.33;3.10;;;26.10;85.40;;;;;;5033374;28;20540;-68
2022/08/08 09:45:06;;;;;;;4.37;2.73;;;26.30;86.20;;;;;;5032815;28;20456;-68
2022/08/08 09:47:34;;;;;;;4.67;3.50;;;26.40;81.40;;;;;;5032873;28;20472;-68
2022/08/08 09:50:07;;;;;;;3.47;3.13;;;26.70;82.00;;;;;;5033017;28;20490;-68
2022/08/08 09:52:35;;;;;;;4.23;2.97;;;27.20;78.70;;;;;;5032988;28;20453;-68
2022/08/08 09:55:03;;;;;;;3.90;3.10;;;27.40;77.70;;;;;;5032629;28;20449;-68
2022/08/08 09:57:36;;;;;;;4.90;2.37;;;28.00;79.30;;;;;;5032668;28;20473;-68
2022/08/08 10:00:08;;;;;;;4.17;2.80;;;28.90;75.50;;;;;;5032588;28;20823;-68
2022/08/08 10:02:37;;;;;;;2.57;2.37;;;29.50;73.30;;;;;;5032857;28;20449;-68
2022/08/08 10:05:12;;;;;;;3.30;2.47;;;30.00;70.00;;;;;;5032471;28;20452;-68
2022/08/08 10:07:46;;;;;;;3.20;2.47;;;30.10;67.90;;;;;;5032552;28;20471;-67
2022/08/08 10:10:13;;;;;;;4.50;2.47;;;29.40;67.60;;;;;;5032465;28;20480;-67
2022/08/08 10:12:41;;;;;;;3.93;2.87;;;29.30;69.80;;;;;;5032343;28;20453;-68
2022/08/08 10:15:10;;;;;;;2.80;2.57;;;29.50;68.10;;;;;;5032254;28;20455;-68
2022/08/08 10:17:45;;;;;;;3.60;2.43;;;29.70;66.10;;;;;;5032208;28;20460;-68
2022/08/08 10:20:13;;;;;;;7.43;2.87;;;29.80;68.20;;;;;;5032309;28;20440;-68
2022/08/08 10:22:48;;;;;;;2.80;2.50;;;30.50;68.30;;;;;;5032348;28;20464;-69
2022/08/08 10:25:21;;;;;;;3.17;2.47;;;31.20;63.30;;;;;;5032214;28;20510;-68
2022/08/08 10:27:53;;;;;;;4.07;2.53;;;31.80;60.70;;;;;;5032263;28;20556;-68
2022/08/08 10:30:21;;;;;;;2.60;2.30;;;32.00;58.40;;;;;;5032267;28;20547;-68
2022/08/08 10:32:51;;;;;;;4.23;2.33;;;31.90;57.60;;;;;;5032884;28;20456;-69
2022/08/08 10:35:20;;;;;;;2.83;2.10;;;31.90;57.40;;;;;;5032494;28;20449;-68
2022/08/08 10:37:55;;;;;;;3.10;2.40;;;31.90;56.80;;;;;;5032800;28;20455;-69
2022/08/08 10:40:24;;;;;;;2.80;2.43;;;32.20;57.50;;;;;;5032043;28;20453;-68
2022/08/08 10:42:55;;;;;;;2.00;1.50;;;32.70;55.20;;;;;;5031828;28;20448;-68
2022/08/08 10:45:23;;;;;;;2.40;2.00;;;33.30;53.00;;;;;;5031535;28;20972;-68
2022/08/08 10:47:54;;;;;;;2.70;1.80;;;33.50;53.60;;;;;;5031573;28;20452;-68
2022/08/08 10:50:22;;;;;;;3.17;1.90;;;34.00;52.20;;;;;;5031843;28;20481;-68
2022/08/08 10:52:49;;;;;;;2.63;1.63;;;34.30;51.10;;;;;;5031680;28;20946;-68
2022/08/08 10:55:17;;;;;;;2.30;1.80;;;34.60;49.60;;;;;;5031467;28;20452;-68
2022/08/08 10:57:46;;;;;;;2.10;1.70;;;34.40;48.20;;;;;;5031595;28;20456;-68
2022/08/08 11:00:20;;;;;;;3.33;1.90;;;33.70;47.60;;;;;;5031610;28;20495;-68
2022/08/08 11:02:47;;;;;;;3.67;1.67;;;33.10;48.50;;;;;;5031705;28;20447;-68
2022/08/08 11:05:13;;;;;;;3.17;1.50;;;33.10;49.40;;;;;;5031129;28;20459;-69
2022/08/08 11:07:42;;;;;;;2.50;1.67;;;33.00;48.60;;;;;;5031284;28;20994;-69
2022/08/08 11:10:11;;;;;;;2.43;1.80;;;33.10;47.90;;;;;;5031461;28;20510;-68
2022/08/08 11:12:47;;;;;;;2.63;1.93;;;33.00;46.40;;;;;;5031351;28;20460;-67
2022/08/08 11:15:16;;;;;;;2.43;1.50;;;33.00;46.30;;;;;;5031360;28;20531;-68
2022/08/08 11:17:44;;;;;;;2.40;1.43;;;33.40;47.50;;;;;;5031237;28;20982;-68
2022/08/08 11:20:13;;;;;;;2.30;1.80;;;33.70;45.60;;;;;;5031330;28;20449;-68
2022/08/08 11:22:41;;;;;;;4.03;2.27;;;32.90;47.10;;;;;;5031289;28;20449;-69
2022/08/08 11:25:11;;;;;;;2.40;1.80;;;31.40;48.10;;;;;;5030881;28;20471;-67
2022/08/08 11:27:38;;;;;;;2.83;2.07;;;30.80;51.60;;;;;;5031041;28;20829;-67
2022/08/08 11:30:08;;;;;;;2.90;1.83;;;31.20;51.50;;;;;;5031458;28;20489;-67
2022/08/08 11:32:39;;;;;;;4.20;1.80;;;31.80;49.90;;;;;;5031266;28;21247;-68
2022/08/08 11:35:08;;;;;;;2.93;1.80;;;32.40;49.50;;;;;;5030884;28;20809;-68
2022/08/08 11:37:36;;;;;;;2.70;2.07;;;32.90;47.00;;;;;;5030781;28;20998;-69
2022/08/08 11:40:05;;;;;;;4.90;1.60;;;33.20;48.10;;;;;;5030825;28;20445;-67
2022/08/08 11:42:33;;;;;;;3.00;1.90;;;33.60;46.30;;;;;;5031021;28;20831;-68
2022/08/08 11:45:01;;;;;;;2.53;2.03;;;33.40;45.60;;;;;;5032473;28;20457;-68
2022/08/08 11:47:29;;;;;;;2.77;1.87;;;33.50;48.00;;;;;;5030600;28;21078;-69
2022/08/08 11:50:01;;;;;;;2.10;1.73;;;34.20;46.20;;;;;;5030059;28;20496;-68
2022/08/08 11:52:28;;;;;;;2.53;1.60;;;34.50;44.80;;;;;;5030212;28;20468;-68
2022/08/08 11:54:55;;;;;;;3.20;2.13;;;34.20;44.50;;;;;;5030516;28;20457;-68
2022/08/08 11:57:24;;;;;;;2.30;2.10;;;34.00;46.40;;;;;;5030550;28;20951;-68
2022/08/08 11:59:57;;;;;;;2.87;2.07;;;34.00;45.00;;;;;;5030423;28;20445;-68
2022/08/08 12:02:27;;;;;;;5.43;2.03;;;33.00;44.60;;;;;;5030483;28;20852;-68
2022/08/08 12:05:03;;;;;;;3.33;2.00;;;31.70;46.50;;;;;;5030037;28;20441;-68
2022/08/08 12:07:29;;;;;;;3.70;2.10;;;31.70;48.80;;;;;;5030211;28;20481;-69
2022/08/08 12:09:57;;;;;;;2.80;1.70;;;32.00;46.40;;;;;;5030114;28;21022;-68
2022/08/08 12:12:25;;;;;;;2.30;2.00;;;32.00;50.40;;;;;;5030846;28;20479;-68
2022/08/08 12:15:00;;;;;;;2.53;2.00;;;32.30;47.10;;;;;;5029950;28;20836;-68
2022/08/08 12:17:35;;;;;;;2.37;2.17;;;32.80;46.00;;;;;;5030012;28;20472;-68
2022/08/08 12:20:05;;;;;;;5.13;2.43;;;32.90;46.70;;;;;;5030362;28;20452;-68
2022/08/08 12:22:32;;;;;;;3.27;2.40;;;33.50;46.40;;;;;;5030262;28;20901;-69
2022/08/08 12:25:00;;;;;;;3.13;2.83;;;33.80;46.00;;;;;;5030094;28;20814;-68
2022/08/08 12:27:39;;;;;;;2.90;2.00;;;34.10;46.70;;;;;;5029844;28;21015;-68
2022/08/08 12:30:06;;;;;;;3.40;2.10;;;34.60;45.10;;;;;;5029960;28;20991;-68
2022/08/08 12:32:43;;;;;;;4.63;1.63;;;35.40;43.00;;;;;;5029894;28;20459;-68
2022/08/08 12:35:21;;;;;;;2.83;1.70;;;36.10;40.90;;;;;;5029626;28;20459;-68
2022/08/08 12:38:01;;;;;;;2.50;1.93;;;36.20;40.00;;;;;;5029856;28;20445;-68
2022/08/08 12:40:37;;;;;;;2.10;1.60;;;35.00;39.60;;;;;;5029691;28;20456;-68
2022/08/08 12:43:04;;;;;;;4.00;2.07;;;33.50;42.20;;;;;;5029781;28;20445;-67
2022/08/08 12:45:36;;;;;;;2.97;1.77;;;33.10;43.10;;;;;;5029526;28;20463;-68
2022/08/08 12:48:05;;;;;;;3.67;2.20;;;33.40;44.40;;;;;;5029778;28;20868;-68
2022/08/08 12:50:42;;;;;;;3.23;1.80;;;34.50;42.80;;;;;;5029659;28;20876;-68
2022/08/08 12:53:23;;;;;;;2.60;1.60;;;35.00;40.70;;;;;;5029847;28;20444;-68
2022/08/08 12:55:54;;;;;;;3.37;1.70;;;34.90;40.50;;;;;;5029470;28;20550;-68
2022/08/08 12:58:22;;;;;;;2.67;1.70;;;34.50;41.10;;;;;;5029651;28;20445;-68
2022/08/08 13:00:49;;;;;;;3.03;1.50;;;34.60;41.90;;;;;;5029698;28;20475;-68
2022/08/08 13:03:26;;;;;;;4.27;1.70;;;35.10;40.20;;;;;;5033003;28;20484;-68
2022/08/08 13:06:06;;;;;;;2.00;1.50;;;35.40;39.70;;;;;;5033457;28;20468;-67
2022/08/08 13:08:44;;;;;;;2.30;1.80;;;35.40;39.10;;;;;;5033650;28;20444;-69
2022/08/08 13:11:19;;;;;;;7.00;1.80;;;35.70;38.80;;;;;;5033529;28;20515;-68
2022/08/08 13:14:02;;;;;;;2.87;1.63;;;36.40;38.30;;;;;;5033409;28;20976;-68
2022/08/08 13:16:31;;;;;;;2.53;1.97;;;37.30;37.30;;;;;;5033234;28;20461;-68
2022/08/08 13:18:58;;;;;;;3.23;1.70;;;36.90;37.70;;;;;;5033508;28;20451;-68
2022/08/08 13:21:26;;;;;;;2.90;1.60;;;37.30;36.90;;;;;;5033499;28;20441;-68
2022/08/08 13:23:53;;;;;;;5.27;1.90;;;37.20;36.40;;;;;;5033340;28;20471;-67
2022/08/08 13:26:20;;;;;;;2.03;1.50;;;37.40;37.40;;;;;;5032897;28;20492;-68
2022/08/08 13:28:47;;;;;;;2.70;1.50;;;37.20;38.70;;;;;;5033575;28;20456;-66